METAR stanice u blizini

 

LYBE - Beograd / Surčin, Srbija
Ažurirano: 13/05/2021 23:30
Slaba kiša, Delimično oblačno
Slaba kiša, Delimično oblačno
 Pravac vetra JZ
Vetar: JZ 13 km/h
Temperatura: 13°C
Tačka rose: 11°C
Vlažnost: 88%
Pritisak: 1007 hPa
Pregled: Light Rain
Oblaci: Partly Cloudy
Vidljivost: 10 km
Cloud details: Partly Cloudy 1128 m
2021/05/13 21:30 LYBE 132130Z 22007KT 180V240 9999 -RA SCT037 13/11 Q1007 NOSIG
LYBT - Beograd / Batajnica, Srbija
Ažurirano: 13/05/2021 23:30
Slaba kiša, Delimično oblačno
Slaba kiša, Delimično oblačno
 Pravac vetra J
Vetar: J 9 km/h
Temperatura: 13°C
Tačka rose: 13°C
Vlažnost: 100%
Pritisak: 1007 hPa
Pregled: Light Rain
Oblaci: Partly Cloudy
Vidljivost: 10 km
Cloud details: Partly Cloudy 1372 m
2021/05/13 21:30 LYBT 132130Z 19005KT 9999 -RA SCT045 13/13 Q1007 NOSIG
LYVR - Vršac, Srbija
Ažurirano: 13/05/2021 23:30
Vedro
Vedro
 Pravac vetra JJZ
Vetar: JJZ 6 km/h
Temperatura: 13°C
Tačka rose: 11°C
Vlažnost: 88%
Pritisak: 1006 hPa
Pregled: Vedro
Vidljivost: greater than 10 km
2021/05/13 21:30 LYVR 132130Z AUTO 21003KT 170V230 CAVOK 13/11 Q1006 RESHRA
 
LYKV - Lađevci, Srbija
Ažurirano: 13/05/2021 23:30
Vedro
Vedro
 Pravac vetra varies
Vetar: varies 4 km/h
Temperatura: 12°C
Tačka rose: 12°C
Vlažnost: 100%
Pritisak: 1008 hPa
Pregled: Vedro
Vidljivost: greater than 10 km
2021/05/13 21:30 LYKV 132130Z VRB02KT CAVOK 12/12 Q1008 NOSIG
LYNI - Niš, Srbija
Ažurirano: 13/05/2021 23:30
Vedro
Vedro
 Pravac vetra JI
Vetar: JI 6 km/h
Temperatura: 13°C
Tačka rose: 7°C
Vlažnost: 67%
Pritisak: 1009 hPa
Pregled: Vedro
Vidljivost: greater than 10 km
2021/05/13 21:30 LYNI 132130Z 14003KT 100V210 CAVOK 13/07 Q1009 NOSIG
BKPR - Priština, Srbija
Ažurirano: 13/05/2021 23:30
Partly Cloudy
Partly Cloudy
 Pravac vetra JJZ
Vetar: JJZ 26 km/h
Temperatura: 12°C
Tačka rose: 5°C
Vlažnost: 63%
Pritisak: 1010 hPa
Oblaci: Partly Cloudy
Vidljivost: 10 km
Cloud details: Partly Cloudy 2743 m
2021/05/13 21:30 BKPR 132130Z 21014KT 9999 SCT090 12/05 Q1010 NOSIG
 
LHPP - Pecs / Pogany, Hungary
Ažurirano: 13/05/2021 16:15
NOT Current
Mostly Cloudy
Mostly Cloudy
 Pravac vetra Z
Vetar: Z 17 km/h
Temperatura: 17°C
Tačka rose: 9°C
Vlažnost: 59%
Pritisak: 1003 hPa
Oblaci: Mostly Cloudy
Vidljivost: 10 km
Cloud details: Few Clouds 1219 m
Few Clouds 1219 m
Mostly Cloudy 1707 m
2021/05/13 14:15 LHPP 131415Z 27009KT 9999 FEW040 FEW040TCU BKN056 17/09 Q1003
LHUD - Szeged, Hungary
Ažurirano: 04/07/2019 01:45
NOT Current
Vedro
Vedro
 Pravac vetra S
Vetar: S 7 km/h
Temperatura: 18°C
Tačka rose: 13°C
Vlažnost: 73%
Pritisak: 1019 hPa
Pregled: Vedro
Vidljivost: greater than 10 km
2019/07/03 23:45 LHUD 032345Z 35004KT CAVOK 18/13 Q1019
LRTR - Timisoara, Romania
Ažurirano: 13/05/2021 23:30
Partly Cloudy
Partly Cloudy
 Pravac vetra J
Vetar: J 15 km/h
Temperatura: 14°C
Tačka rose: 14°C
Vlažnost: 100%
Pritisak: 1005 hPa
Oblaci: Partly Cloudy
Vidljivost: 10 km
Cloud details: Partly Cloudy 1372 m
2021/05/13 21:30 LRTR 132130Z 19008KT 9999 SCT045 14/14 Q1005
 
LRCV - Craiova, Romania
Ažurirano: 13/05/2021 23:30
Vedro
Vedro
 Pravac vetra J
Vetar: J 9 km/h
Temperatura: 12°C
Tačka rose: 11°C
Vlažnost: 94%
Pritisak: 1007 hPa
Pregled: Vedro
Vidljivost: greater than 10 km
2021/05/13 21:30 LRCV 132130Z 17005KT CAVOK 12/11 Q1007 R09/29//95
LBSF - Sofia, Bulgaria
Ažurirano: 13/05/2021 23:30
Vedro
Vedro
 Pravac vetra ZSZ
Vetar: ZSZ 7 km/h
Temperatura: 12°C
Tačka rose: 6°C
Vlažnost: 67%
Pritisak: 1009 hPa
Pregled: Vedro
Vidljivost: greater than 10 km
2021/05/13 21:30 LBSF 132130Z 29004KT 270V330 CAVOK 12/06 Q1009 NOSIG
LWSK - Skoplje, Makedonija
Ažurirano: 13/05/2021 23:30
Few Clouds
Few Clouds
 Pravac vetra calm
Vetar: Tišina
Temperatura: 13°C
Tačka rose: 7°C
Vlažnost: 67%
Pritisak: 1009 hPa
Oblaci: Few Clouds
Vidljivost: 10 km
Cloud details: Few Clouds 1524 m
2021/05/13 21:30 LWSK 132130Z 00000KT 9999 FEW050 13/07 Q1009 NOSIG
 
LYPG - Podgorica, Crna Gora
Ažurirano: 13/05/2021 23:30
Slaba kiša, Pretežno oblačno
Slaba kiša, Pretežno oblačno
 Pravac vetra SSZ
Vetar: SSZ 7 km/h
Temperatura: 14°C
Tačka rose: 13°C
Vlažnost: 94%
Pritisak: 1010 hPa
Pregled: Light Rain
Oblaci: Mostly Cloudy
Vidljivost: 10 km
Cloud details: Few Clouds 823 m
Partly Cloudy 1219 m
Mostly Cloudy 2134 m
2021/05/13 21:30 LYPG 132130Z 34004KT 9999 -RA FEW027 SCT040 BKN070 14/13 Q1010 NOSIG
LQSA - Sarajevo, Bosna i Hercegovina
Ažurirano: 13/05/2021 23:00
Mostly Cloudy
Mostly Cloudy
 Pravac vetra varies
Vetar: varies 4 km/h
Temperatura: 11°C
Tačka rose: 9°C
Vlažnost: 88%
Pritisak: 1008 hPa
Oblaci: Mostly Cloudy
Vidljivost: 10 km
Cloud details: Mostly Cloudy 1829 m
2021/05/13 21:00 LQSA 132100Z VRB02KT 9999 BKN060 11/09 Q1008
LDOS - Osijek, Hrvatksa
Ažurirano: 13/05/2021 23:30
Partly Cloudy
Partly Cloudy
 Pravac vetra JJZ
Vetar: JJZ 6 km/h
Temperatura: 13°C
Tačka rose: 11°C
Vlažnost: 88%
Pritisak: 1005 hPa
Oblaci: Partly Cloudy
Vidljivost: 10 km
Cloud details: Partly Cloudy 1128 m
2021/05/13 21:30 LDOS 132130Z 21003KT 9999 SCT037 13/11 Q1005